Time;durP1;ratioP1;P1;durP2;ratioP2;P2;SDS_P1;SDS_P2;PMS_P1;PMS_P2;Temp;Humidity;BMP_temperature;BMP_pressure;BME280_temperature;BME280_humidity;BME280_pressure;Samples;Min_cycle;Max_cycle;Signal;HPM_P1;HPM_P2
2021/01/12 00:00:33;;;;;;;5.07;3.33;;;;;;;1.31;81.36;93233.94;5093663;28;20446;-43
2021/01/12 00:03:00;;;;;;;4.90;3.55;;;;;;;1.36;81.92;93225.78;5093444;28;20050;-42
2021/01/12 00:05:25;;;;;;;5.85;3.65;;;;;;;1.35;81.21;93215.38;5093656;28;20028;-43
2021/01/12 00:07:51;;;;;;;12.90;5.68;;;;;;;1.38;81.16;93212.44;5093497;28;20511;-41
2021/01/12 00:10:19;;;;;;;6.35;4.03;;;;;;;1.39;80.92;93188.69;5093504;28;20515;-43
2021/01/12 00:12:45;;;;;;;5.90;3.80;;;;;;;1.31;81.03;93218.38;5093409;28;20017;-43
2021/01/12 00:15:10;;;;;;;5.35;3.42;;;;;;;1.29;81.52;93220.09;5093357;28;20139;-44
2021/01/12 00:17:36;;;;;;;5.28;3.13;;;;;;;1.15;82.44;93227.25;5093374;28;20028;-42
2021/01/12 00:20:04;;;;;;;2.78;2.22;;;;;;;1.19;82.32;93246.06;5093301;28;20031;-45
2021/01/12 00:22:30;;;;;;;2.03;1.67;;;;;;;1.27;82.39;93258.66;5093243;28;20047;-46
2021/01/12 00:24:55;;;;;;;3.25;1.55;;;;;;;1.21;82.89;93257.91;5093228;28;20451;-47
2021/01/12 00:27:22;;;;;;;10.73;5.78;;;;;;;1.15;82.64;93243.56;5093319;28;20042;-42
2021/01/12 00:29:48;;;;;;;11.73;7.28;;;;;;;1.26;82.10;93240.09;5093292;28;20026;-44
2021/01/12 00:32:18;;;;;;;10.73;5.40;;;;;;;1.27;82.57;93220.59;5093237;28;20099;-42
2021/01/12 00:34:44;;;;;;;12.38;6.80;;;;;;;1.29;82.52;93212.69;5093085;28;20055;-45
2021/01/12 00:37:09;;;;;;;5.32;3.13;;;;;;;1.26;82.64;93204.75;5092849;28;20552;-47
2021/01/12 00:39:35;;;;;;;4.28;2.22;;;;;;;1.11;81.82;93226.75;5093023;28;20051;-45
2021/01/12 00:42:00;;;;;;;3.47;1.83;;;;;;;1.11;82.66;93243.06;5092948;28;20088;-45
2021/01/12 00:44:26;;;;;;;2.42;1.83;;;;;;;1.16;82.21;93241.59;5092961;28;20459;-42
2021/01/12 00:46:53;;;;;;;2.55;1.70;;;;;;;1.09;82.32;93242.81;5092895;28;20470;-44
2021/01/12 00:49:20;;;;;;;2.22;1.63;;;;;;;1.05;82.68;93233.41;5110452;28;20055;-43
2021/01/12 00:51:46;;;;;;;2.35;2.08;;;;;;;1.01;83.48;93217.38;5113152;28;20067;-42
2021/01/12 00:54:16;;;;;;;7.18;4.40;;;;;;;1.19;83.25;93216.13;5113047;28;20027;-45
2021/01/12 00:56:41;;;;;;;5.30;3.38;;;;;;;1.21;83.39;93203.50;5113083;28;20031;-43
2021/01/12 00:59:06;;;;;;;7.03;3.90;;;;;;;1.29;83.19;93209.22;5113014;28;20034;-44
2021/01/12 01:01:33;;;;;;;5.30;4.25;;;;;;;1.24;83.38;93207.97;5112572;28;20052;-46
2021/01/12 01:03:59;;;;;;;22.15;7.15;;;;;;;1.13;83.06;93177.31;5112963;28;20039;-45
2021/01/12 01:06:25;;;;;;;4.78;3.13;;;;;;;1.22;82.73;93168.91;5112923;28;20061;-44
2021/01/12 01:08:50;;;;;;;2.30;1.73;;;;;;;1.06;81.58;93178.53;5112778;28;20547;-48
2021/01/12 01:11:16;;;;;;;2.30;1.30;;;;;;;1.03;81.46;93193.16;5112651;28;20106;-43
2021/01/12 01:13:42;;;;;;;2.35;2.00;;;;;;;1.05;81.95;93209.69;5112676;28;20099;-44
2021/01/12 01:16:08;;;;;;;2.80;2.38;;;;;;;1.19;81.68;93218.88;5112659;28;20031;-42
2021/01/12 01:18:33;;;;;;;4.47;3.30;;;;;;;1.21;80.84;93213.66;5112549;28;20027;-43
2021/01/12 01:20:59;;;;;;;7.05;3.90;;;;;;;1.15;81.44;93210.94;5112496;28;20024;-45
2021/01/12 01:23:24;;;;;;;5.28;3.17;;;;;;;1.20;81.27;93202.03;5112717;28;20492;-44
2021/01/12 01:25:51;;;;;;;3.55;2.30;;;;;;;1.09;80.45;93202.03;5112418;28;20492;-47
2021/01/12 01:28:20;;;;;;;4.35;2.47;;;;;;;1.14;80.63;93214.91;5112387;28;20106;-43
2021/01/12 01:30:46;;;;;;;2.20;1.75;;;;;;;1.10;80.59;93216.38;5112145;28;20016;-42
2021/01/12 01:33:12;;;;;;;2.45;1.50;;;;;;;0.95;80.67;93210.44;5112200;28;20028;-43
2021/01/12 01:35:37;;;;;;;2.03;1.33;;;;;;;0.90;79.99;93203.00;5112213;28;20028;-47
2021/01/12 01:38:03;;;;;;;2.08;1.60;;;;;;;0.81;80.82;93211.38;5111336;28;20104;-44
2021/01/12 01:40:30;;;;;;;1.63;1.38;;;;;;;0.94;80.78;93195.34;5112069;28;20047;-44
2021/01/12 01:42:55;;;;;;;2.60;1.85;;;;;;;0.98;81.16;93187.69;5112074;28;20023;-43
2021/01/12 01:45:23;;;;;;;4.32;2.40;;;;;;;0.95;81.97;93183.25;5112175;28;20030;-43
2021/01/12 01:47:50;;;;;;;13.10;6.47;;;;;;;1.09;81.73;93212.91;5111941;28;20028;-47
2021/01/12 01:50:17;;;;;;;11.70;6.13;;;;;;;1.19;81.54;93189.66;5111942;28;20023;-45
2021/01/12 01:53:12;;;;;;;11.32;5.90;;;;;;;1.17;80.60;93186.00;5111762;28;20049;-44
2021/01/12 01:55:38;;;;;;;5.25;3.03;;;;;;;1.10;81.64;93175.59;5110530;28;20423;-45
2021/01/12 01:58:04;;;;;;;3.70;2.00;;;;;;;0.99;81.58;93154.59;5111779;28;20042;-43
2021/01/12 02:00:30;;;;;;;2.80;2.42;;;;;;;1.20;81.05;93166.69;5111380;28;20032;-43
2021/01/12 02:03:16;;;;;;;12.35;5.93;;;;;;;1.26;80.69;93183.75;5111542;28;20047;-43
2021/01/12 02:05:57;;;;;;;9.13;4.63;;;;;;;1.03;81.53;93178.81;5111874;28;20043;-43
2021/01/12 02:08:25;;;;;;;3.70;2.65;;;;;;;1.01;82.10;93171.16;5111558;28;20056;-47
2021/01/12 02:10:54;;;;;;;2.38;1.40;;;;;;;0.86;81.25;93159.03;5110314;28;20030;-44
2021/01/12 02:13:22;;;;;;;1.70;1.40;;;;;;;0.98;81.27;93161.25;5111478;28;20397;-44
2021/01/12 02:15:48;;;;;;;2.45;1.55;;;;;;;0.76;81.65;93166.66;5111563;28;20114;-45
2021/01/12 02:18:13;;;;;;;2.78;1.50;;;;;;;0.61;82.38;93174.31;5111664;28;20509;-44
2021/01/12 02:20:39;;;;;;;1.90;1.60;;;;;;;0.70;82.50;93165.94;5110195;28;20113;-43
2021/01/12 02:23:10;;;;;;;2.88;1.67;;;;;;;0.74;83.24;93180.75;5111504;28;20029;-42
2021/01/12 02:25:39;;;;;;;2.63;1.88;;;;;;;0.77;82.65;93187.19;5111368;28;20028;-45
2021/01/12 02:28:10;;;;;;;5.40;2.20;;;;;;;0.78;82.15;93185.94;5101303;28;20102;-43
2021/01/12 02:30:36;;;;;;;2.40;2.03;;;;;;;0.82;82.03;93189.19;5089666;28;20517;-48
2021/01/12 02:33:04;;;;;;;2.60;1.98;;;;;;;0.66;82.33;93160.75;5090907;28;20511;-45
2021/01/12 02:35:30;;;;;;;3.28;1.75;;;;;;;0.89;82.16;93166.22;5091038;28;20031;-43
2021/01/12 02:37:56;;;;;;;2.42;1.70;;;;;;;1.01;81.31;93160.28;5089789;28;20024;-44
2021/01/12 02:40:22;;;;;;;2.53;1.88;;;;;;;0.97;81.25;93157.06;5090858;28;20517;-46
2021/01/12 02:42:47;;;;;;;7.40;2.33;;;;;;;0.94;81.34;93162.72;5090838;28;20099;-44
2021/01/12 02:45:13;;;;;;;3.38;2.25;;;;;;;1.03;81.30;93143.47;5090672;28;20032;-43
2021/01/12 02:47:39;;;;;;;1.50;1.40;;;;;;;1.02;80.67;93147.44;5090775;28;20028;-45
2021/01/12 02:50:06;;;;;;;2.28;1.55;;;;;;;1.12;80.35;93145.94;5090753;28;20112;-45
2021/01/12 02:52:31;;;;;;;2.28;1.67;;;;;;;1.01;79.99;93143.97;5090794;28;20031;-44
2021/01/12 02:54:57;;;;;;;1.48;0.93;;;;;;;0.93;80.28;93137.56;5090851;28;20420;-45
2021/01/12 02:57:22;;;;;;;2.53;1.50;;;;;;;1.06;79.48;93145.22;5090603;28;20028;-45
2021/01/12 02:59:48;;;;;;;1.30;1.15;;;;;;;1.02;79.88;93131.13;5090655;28;20500;-45
2021/01/12 03:02:13;;;;;;;1.35;1.08;;;;;;;0.97;79.92;93132.59;5090456;28;20433;-43
2021/01/12 03:04:38;;;;;;;2.53;1.80;;;;;;;1.07;80.06;93124.94;5090596;28;20514;-45
2021/01/12 03:07:04;;;;;;;3.13;1.60;;;;;;;1.16;79.64;93108.38;5090487;28;20028;-45
2021/01/12 03:09:29;;;;;;;2.20;1.63;;;;;;;1.14;79.71;93100.72;5090545;28;20024;-44
2021/01/12 03:11:55;;;;;;;5.82;1.98;;;;;;;1.10;80.23;93088.59;5090464;28;20016;-43
2021/01/12 03:14:21;;;;;;;4.38;2.58;;;;;;;1.01;80.37;93089.59;5094395;28;20458;-42
2021/01/12 03:16:47;;;;;;;3.88;2.88;;;;;;;1.04;81.33;93075.00;5094579;28;20085;-44
2021/01/12 03:19:12;;;;;;;10.43;5.63;;;;;;;1.04;81.29;93063.41;5112151;28;20039;-45
2021/01/12 03:21:38;;;;;;;12.32;6.50;;;;;;;1.01;81.75;93050.81;5114788;28;20030;-45
2021/01/12 03:24:04;;;;;;;8.55;4.68;;;;;;;1.12;81.58;93058.94;5114871;27;20147;-45
2021/01/12 03:26:30;;;;;;;3.45;2.42;;;;;;;1.27;81.62;93057.44;5114748;28;20023;-46
2021/01/12 03:28:55;;;;;;;2.70;1.95;;;;;;;1.22;81.76;93069.06;5114679;28;20042;-47
2021/01/12 03:31:21;;;;;;;2.65;1.52;;;;;;;1.22;81.85;93074.50;5114622;28;20019;-46
2021/01/12 03:33:46;;;;;;;6.03;4.28;;;;;;;1.23;81.45;93075.22;5114657;28;20127;-47
2021/01/12 03:36:11;;;;;;;4.53;2.90;;;;;;;1.31;81.34;93070.75;5114709;28;20031;-43
2021/01/12 03:38:37;;;;;;;3.42;2.17;;;;;;;1.29;81.65;93060.38;5114552;28;20027;-42
2021/01/12 03:41:02;;;;;;;2.05;1.42;;;;;;;1.28;81.04;93055.44;5114475;28;20110;-45
2021/01/12 03:43:28;;;;;;;2.83;1.95;;;;;;;1.24;81.67;93052.97;5114495;28;20037;-42
2021/01/12 03:45:53;;;;;;;3.10;1.92;;;;;;;1.19;82.17;93053.72;5114351;28;20074;-45
2021/01/12 03:48:20;;;;;;;2.55;1.92;;;;;;;1.13;81.83;93046.81;5114279;28;20023;-42
2021/01/12 03:50:45;;;;;;;1.42;1.30;;;;;;;1.05;81.39;93043.88;5114323;28;20565;-48
2021/01/12 03:53:14;;;;;;;2.58;1.52;;;;;;;1.05;81.10;93041.16;5114266;28;20066;-45
2021/01/12 03:55:39;;;;;;;11.32;5.20;;;;;;;1.03;81.29;93051.03;5114191;28;20516;-45
2021/01/12 03:58:04;;;;;;;50.15;19.75;;;;;;;0.99;81.07;93066.88;5113951;28;20035;-46
2021/01/12 04:00:30;;;;;;;41.78;18.52;;;;;;;0.88;81.22;93075.78;5114225;27;20027;-44
2021/01/12 04:02:55;;;;;;;4.13;3.47;;;;;;;0.68;80.52;93074.06;5113863;28;20039;-47
2021/01/12 04:05:21;;;;;;;5.38;1.98;;;;;;;0.71;80.42;93080.47;5113991;28;20121;-47
2021/01/12 04:07:46;;;;;;;6.70;3.78;;;;;;;0.66;80.33;93073.06;5113250;28;20035;-46
2021/01/12 04:10:12;;;;;;;11.13;6.70;;;;;;;0.57;80.73;93078.72;5114056;28;20028;-43
2021/01/12 04:12:37;;;;;;;9.68;5.55;;;;;;;0.49;80.92;93066.88;5113884;28;20518;-43
2021/01/12 04:15:05;;;;;;;3.03;2.10;;;;;;;0.50;80.82;93065.63;5113831;28;20035;-45
2021/01/12 04:17:30;;;;;;;6.10;4.10;;;;;;;0.59;80.90;93057.25;5114065;28;20110;-46
2021/01/12 04:19:55;;;;;;;5.05;3.05;;;;;;;0.44;80.34;93041.22;5113753;28;20156;-46
2021/01/12 04:22:21;;;;;;;8.45;5.15;;;;;;;0.47;80.88;93045.66;5113728;28;20023;-46
2021/01/12 04:24:48;;;;;;;3.17;2.30;;;;;;;0.53;81.27;93032.81;5113384;28;20019;-44
2021/01/12 04:27:14;;;;;;;2.67;2.08;;;;;;;0.56;81.09;93034.53;5113579;28;20027;-43
2021/01/12 04:29:39;;;;;;;8.65;4.45;;;;;;;0.46;81.30;93033.31;5113565;28;20506;-48
2021/01/12 04:32:04;;;;;;;4.50;3.22;;;;;;;0.48;81.69;93047.13;5113355;28;20020;-44
2021/01/12 04:34:30;;;;;;;8.63;4.35;;;;;;;0.32;81.47;93045.16;5113445;28;20031;-45
2021/01/12 04:36:55;;;;;;;12.00;6.00;;;;;;;0.25;81.22;93051.06;5113415;28;20029;-45
2021/01/12 04:39:21;;;;;;;29.98;13.02;;;;;;;0.20;81.48;93035.50;5113360;28;20019;-43
2021/01/12 04:41:46;;;;;;;5.10;4.13;;;;;;;0.13;81.23;93048.84;5113403;28;20023;-44
2021/01/12 04:44:12;;;;;;;4.72;3.40;;;;;;;0.09;81.47;93049.06;5113333;28;20043;-43
2021/01/12 04:46:37;;;;;;;17.10;7.30;;;;;;;0.09;82.12;93048.34;5113199;28;20031;-45
2021/01/12 04:49:02;;;;;;;10.60;5.78;;;;;;;0.09;81.53;93048.34;5113137;28;20027;-42
2021/01/12 04:51:28;;;;;;;7.30;4.43;;;;;;;0.14;81.89;93048.34;5113015;28;20030;-47
2021/01/12 04:53:53;;;;;;;3.83;2.42;;;;;;;0.02;82.55;93054.25;5113184;28;20492;-46
2021/01/12 04:56:20;;;;;;;5.53;2.67;;;;;;;0.08;82.38;93042.16;5112963;28;20080;-44
2021/01/12 04:58:51;;;;;;;6.40;3.25;;;;;;;0.13;82.03;93037.97;5112139;28;20032;-43
2021/01/12 05:01:18;;;;;;;5.32;2.55;;;;;;;0.10;82.04;93049.81;5112869;28;20039;-43
2021/01/12 05:03:45;;;;;;;3.05;2.03;;;;;;;0.05;81.85;93047.81;5112880;28;20034;-46
2021/01/12 05:06:12;;;;;;;4.15;2.75;;;;;;;0.20;82.13;93051.78;5112833;28;20683;-45
2021/01/12 05:08:46;;;;;;;3.90;3.00;;;;;;;0.17;81.72;93050.06;5112751;28;20038;-44
2021/01/12 05:11:15;;;;;;;5.82;3.13;;;;;;;0.09;81.81;93059.19;5112654;28;20023;-42
2021/01/12 05:13:43;;;;;;;3.72;2.15;;;;;;;0.06;82.15;93063.63;5112652;28;20115;-43
2021/01/12 05:16:09;;;;;;;2.83;2.57;;;;;;;0.18;82.24;93072.50;5112752;28;20103;-46
2021/01/12 05:18:41;;;;;;;3.60;2.60;;;;;;;0.17;81.72;93060.19;5112583;28;20352;-44
2021/01/12 05:21:10;;;;;;;5.80;3.00;;;;;;;0.23;81.52;93048.09;5112576;28;20055;-46
2021/01/12 05:24:04;;;;;;;7.15;3.33;;;;;;;0.30;81.84;93034.06;5112617;27;20027;-46
2021/01/12 05:26:34;;;;;;;25.17;11.68;;;;;;;0.33;81.55;93000.47;5112566;28;20488;-46
2021/01/12 05:29:01;;;;;;;8.52;5.63;;;;;;;0.34;81.92;92993.06;5112339;28;20031;-47
2021/01/12 05:31:27;;;;;;;5.63;3.78;;;;;;;0.13;82.08;93008.13;5112320;27;20027;-43
2021/01/12 05:33:53;;;;;;;12.82;5.65;;;;;;;-0.01;82.43;93007.13;5112355;28;20456;-43
2021/01/12 05:36:20;;;;;;;9.52;5.25;;;;;;;0.23;82.54;93017.50;5111454;28;20035;-46
2021/01/12 05:38:47;;;;;;;7.20;4.18;;;;;;;0.16;82.62;93001.69;5112068;28;20054;-47
2021/01/12 05:41:14;;;;;;;3.88;2.67;;;;;;;0.24;82.76;93005.41;5112053;28;20493;-45
2021/01/12 05:43:43;;;;;;;7.53;3.20;;;;;;;0.40;82.30;93008.13;5112162;28;20059;-46
2021/01/12 05:46:14;;;;;;;5.70;2.97;;;;;;;0.46;81.95;92999.97;5112076;28;20046;-44
2021/01/12 05:48:41;;;;;;;3.38;2.35;;;;;;;0.53;81.13;93002.19;5111080;28;20112;-45
2021/01/12 05:51:08;;;;;;;2.90;1.75;;;;;;;0.31;81.14;93004.91;5111846;28;20411;-44
2021/01/12 05:54:03;;;;;;;3.38;2.50;;;;;;;0.33;80.56;93011.34;5111988;28;20464;-46
2021/01/12 05:56:29;;;;;;;2.22;2.03;;;;;;;0.32;80.25;93001.72;5093695;28;20051;-46
2021/01/12 05:58:56;;;;;;;3.05;2.25;;;;;;;0.40;80.00;93007.38;5110625;28;20031;-44
2021/01/12 06:01:44;;;;;;;2.78;2.17;;;;;;;0.36;79.43;93023.94;5111693;28;20085;-44
2021/01/12 06:04:12;;;;;;;3.38;2.13;;;;;;;0.35;79.64;93010.81;5091698;28;20048;-46
2021/01/12 06:06:39;;;;;;;3.97;2.47;;;;;;;0.33;79.42;93016.75;5111767;28;20035;-48
2021/01/12 06:09:08;;;;;;;1.50;1.40;;;;;;;0.37;79.51;93016.53;5111664;28;20034;-46
2021/01/12 06:11:35;;;;;;;1.50;1.40;;;;;;;0.26;79.58;93011.09;5111459;28;20023;-46
2021/01/12 06:14:14;;;;;;;2.10;1.50;;;;;;;0.07;79.04;92997.25;5111669;28;20484;-44
2021/01/12 06:16:40;;;;;;;;;;;;;;;0.13;79.32;93008.84;5112044;28;20044;-44
2021/01/12 06:19:25;;;;;;;2.58;2.10;;;;;;;0.12;80.49;93010.09;5111494;28;19918;-42
2021/01/12 06:21:53;;;;;;;2.53;1.33;;;;;;;0.20;80.37;92994.78;5111463;28;20080;-44
2021/01/12 06:24:31;;;;;;;2.67;1.98;;;;;;;0.20;81.11;92961.47;5111615;28;20036;-47
2021/01/12 06:26:57;;;;;;;30.85;9.20;;;;;;;0.41;80.41;92970.84;5111435;28;20042;-46
2021/01/12 06:29:22;;;;;;;15.20;6.90;;;;;;;0.47;80.95;92994.06;5111194;28;20047;-48
2021/01/12 06:31:48;;;;;;;3.47;2.47;;;;;;;0.47;81.20;93007.63;5111498;28;20023;-47
2021/01/12 06:34:23;;;;;;;2.20;2.00;;;;;;;0.45;80.54;92998.50;5110046;28;20035;-43
2021/01/12 06:36:57;;;;;;;5.63;2.90;;;;;;;0.51;80.05;92980.97;5111359;28;20420;-44
2021/01/12 06:39:26;;;;;;;9.20;4.55;;;;;;;0.45;79.35;92976.78;5091347;28;20062;-44
2021/01/12 06:41:51;;;;;;;16.98;7.30;;;;;;;0.53;79.92;93008.38;5089501;28;20070;-43
2021/01/12 06:44:23;;;;;;;6.90;5.00;;;;;;;0.54;79.33;93000.97;5090898;28;20060;-44
2021/01/12 06:46:55;;;;;;;19.65;9.10;;;;;;;0.47;79.21;92990.59;5090887;28;20023;-45
2021/01/12 06:49:22;;;;;;;9.73;4.30;;;;;;;0.52;78.84;92993.28;5090887;28;20047;-45
2021/01/12 06:52:14;;;;;;;8.05;3.92;;;;;;;0.50;78.83;92938.00;5090680;28;20381;-47
2021/01/12 06:54:45;;;;;;;16.58;7.68;;;;;;;0.53;79.62;92950.59;5088681;28;20040;-42
2021/01/12 06:57:14;;;;;;;29.65;14.68;;;;;;;0.62;80.09;92936.75;5090672;28;20063;-44
2021/01/12 06:59:51;;;;;;;14.60;8.13;;;;;;;0.45;80.01;92939.50;5090677;28;20035;-46
2021/01/12 07:02:28;;;;;;;8.23;5.07;;;;;;;0.56;79.74;92925.88;5090484;28;20512;-43
2021/01/12 07:04:54;;;;;;;4.10;3.40;;;;;;;0.61;79.82;92935.25;5090579;28;20178;-46
2021/01/12 07:07:21;;;;;;;5.93;2.63;;;;;;;0.59;79.16;92929.59;5090630;28;20039;-45
2021/01/12 07:09:46;;;;;;;12.43;4.82;;;;;;;0.60;78.85;92939.22;5090539;28;20032;-44
2021/01/12 07:12:19;;;;;;;3.10;2.47;;;;;;;0.64;78.76;92991.31;5090533;28;20047;-46
2021/01/12 07:14:46;;;;;;;6.10;3.65;;;;;;;0.56;79.06;92971.34;5090619;28;20037;-46
2021/01/12 07:17:13;;;;;;;5.18;3.70;;;;;;;0.39;79.20;92979.47;5089256;28;20035;-47
2021/01/12 07:19:38;;;;;;;7.65;4.25;;;;;;;0.47;79.11;92974.31;5090628;28;20104;-46
2021/01/12 07:22:09;;;;;;;4.13;2.97;;;;;;;0.50;77.93;92955.03;5090400;28;20493;-45
2021/01/12 07:24:38;;;;;;;6.30;4.10;;;;;;;0.44;78.56;92969.84;5090338;28;20495;-46
2021/01/12 07:27:05;;;;;;;2.22;1.95;;;;;;;0.37;79.48;92962.94;5090520;28;20512;-43
2021/01/12 07:29:31;;;;;;;2.28;2.03;;;;;;;0.37;79.69;92956.78;5090526;28;20043;-44
2021/01/12 07:32:04;;;;;;;3.22;2.20;;;;;;;0.34;80.03;92982.97;5090318;28;20031;-46
2021/01/12 07:34:35;;;;;;;4.75;3.38;;;;;;;0.36;80.11;92963.44;5090278;28;20515;-46
2021/01/12 07:37:04;;;;;;;5.18;3.30;;;;;;;0.42;80.23;92981.22;5090300;28;20032;-45
2021/01/12 07:39:32;;;;;;;15.85;8.50;;;;;;;0.40;80.64;93008.13;5090427;28;20051;-46
2021/01/12 07:41:58;;;;;;;8.55;4.13;;;;;;;0.16;80.79;93004.41;5090390;28;20028;-47
2021/01/12 07:44:27;;;;;;;4.45;3.17;;;;;;;0.36;79.64;93023.19;5090328;28;20074;-46
2021/01/12 07:46:57;;;;;;;9.52;4.10;;;;;;;0.34;78.90;93036.50;5090291;28;20111;-42
2021/01/12 07:49:25;;;;;;;10.13;3.92;;;;;;;0.22;78.81;93018.75;5090177;28;20526;-47
2021/01/12 07:51:50;;;;;;;10.75;4.07;;;;;;;0.19;78.58;93022.44;5090390;28;20071;-42
2021/01/12 07:54:25;;;;;;;16.92;6.15;;;;;;;0.28;78.45;92995.06;5090165;28;20094;-44
2021/01/12 07:56:53;;;;;;;6.05;3.80;;;;;;;0.28;78.59;92984.19;5090455;28;20032;-45
2021/01/12 07:59:20;;;;;;;10.13;4.75;;;;;;;0.32;78.77;92968.38;5090856;28;20032;-47
2021/01/12 08:01:45;;;;;;;8.00;5.90;;;;;;;0.36;78.98;92955.31;5093663;28;20504;-45
2021/01/12 08:04:13;;;;;;;8.50;5.47;;;;;;;0.50;79.38;92938.75;5093674;28;20113;-46
2021/01/12 08:06:48;;;;;;;8.90;4.88;;;;;;;0.62;79.89;92945.66;5092514;28;20059;-46
2021/01/12 08:09:31;;;;;;;13.38;6.70;;;;;;;0.65;79.92;92935.75;5093544;28;20031;-44
2021/01/12 08:12:00;;;;;;;10.07;5.65;;;;;;;0.75;80.12;92942.41;5093627;28;20027;-45
2021/01/12 08:14:25;;;;;;;6.88;4.57;;;;;;;0.72;79.90;92930.56;5092473;28;20085;-46
2021/01/12 08:16:52;;;;;;;5.03;3.95;;;;;;;0.93;79.48;92957.44;5093499;28;20102;-44
2021/01/12 08:19:25;;;;;;;5.25;4.07;;;;;;;0.95;78.76;92973.97;5111300;28;20024;-46
2021/01/12 08:21:54;;;;;;;9.70;4.80;;;;;;;0.95;78.95;92972.00;5114047;28;20565;-46
2021/01/12 08:24:20;;;;;;;3.60;2.55;;;;;;;0.94;78.07;92989.53;5113874;28;20030;-46
2021/01/12 08:26:46;;;;;;;3.13;1.75;;;;;;;0.80;77.46;92996.00;5113777;28;20500;-47
2021/01/12 08:29:13;;;;;;;2.33;2.00;;;;;;;0.73;78.66;92986.38;5113506;27;20234;-45
2021/01/12 08:31:48;;;;;;;6.47;3.72;;;;;;;0.64;77.78;92964.91;5113528;28;20024;-46
2021/01/12 08:34:16;;;;;;;2.35;2.13;;;;;;;0.77;77.73;92981.44;5113512;27;20110;-47
2021/01/12 08:36:42;;;;;;;6.43;3.97;;;;;;;0.63;77.37;92943.66;5113500;28;20023;-44
2021/01/12 08:39:09;;;;;;;5.35;3.78;;;;;;;0.72;77.33;92976.00;5112347;28;20027;-43
2021/01/12 08:41:34;;;;;;;2.95;2.40;;;;;;;0.79;77.49;92948.31;5112130;28;20030;-47
2021/01/12 08:44:00;;;;;;;2.35;1.85;;;;;;;0.80;77.49;92944.38;5112058;28;20115;-44
2021/01/12 08:46:29;;;;;;;3.08;2.53;;;;;;;0.90;77.22;92953.72;5112100;28;20066;-44
2021/01/12 08:48:55;;;;;;;2.92;2.33;;;;;;;0.83;77.55;92915.44;5113413;28;20420;-44
2021/01/12 08:51:21;;;;;;;8.25;3.40;;;;;;;0.87;77.73;92908.50;5113288;28;20019;-44
2021/01/12 08:53:46;;;;;;;8.18;4.57;;;;;;;0.92;78.39;92905.03;5111999;28;20425;-43
2021/01/12 08:56:12;;;;;;;4.82;3.67;;;;;;;1.01;78.04;92885.75;5113117;28;20122;-46
2021/01/12 08:58:38;;;;;;;7.78;4.68;;;;;;;1.14;77.73;92909.66;5113233;28;20397;-45
2021/01/12 09:01:06;;;;;;;11.88;6.80;;;;;;;1.20;78.80;92911.09;5111680;28;20120;-44
2021/01/12 09:03:32;;;;;;;7.00;4.50;;;;;;;1.37;77.87;92886.53;5113187;28;20673;-45
2021/01/12 09:05:58;;;;;;;21.13;11.45;;;;;;;1.49;78.20;92872.38;5112943;28;20110;-44
2021/01/12 09:08:24;;;;;;;19.67;9.55;;;;;;;1.64;77.91;92879.47;5101074;28;20030;-47
2021/01/12 09:10:50;;;;;;;5.55;4.28;;;;;;;1.70;77.88;92874.72;5092387;28;20512;-47
2021/01/12 09:13:16;;;;;;;5.15;3.88;;;;;;;1.57;76.31;92864.41;5092321;28;20035;-48
2021/01/12 09:15:43;;;;;;;5.35;3.65;;;;;;;1.57;76.79;92874.56;5092358;28;20038;-46
2021/01/12 09:18:19;;;;;;;1.63;1.50;;;;;;;1.51;77.05;92888.94;5092512;28;20048;-44
2021/01/12 09:20:57;;;;;;;7.30;3.30;;;;;;;1.67;76.64;92887.34;5092348;28;20028;-42
2021/01/12 09:23:23;;;;;;;3.05;2.60;;;;;;;1.52;76.05;92878.78;5092514;28;20032;-42
2021/01/12 09:26:03;;;;;;;5.15;2.42;;;;;;;1.51;75.28;92875.34;5092275;28;20480;-45
2021/01/12 09:28:35;;;;;;;3.00;2.08;;;;;;;1.43;76.54;92876.38;5092102;28;20050;-44
2021/01/12 09:31:12;;;;;;;2.58;1.30;;;;;;;1.26;76.22;92852.00;5092237;28;20467;-46
2021/01/12 09:33:39;;;;;;;10.60;4.35;;;;;;;1.59;76.21;92872.06;5092120;28;20042;-46
2021/01/12 09:36:06;;;;;;;10.55;5.68;;;;;;;1.54;75.75;92874.31;5091923;28;20042;-42
2021/01/12 09:38:38;;;;;;;31.73;9.85;;;;;;;1.57;75.46;92869.13;5090758;28;20492;-47
2021/01/12 09:41:03;;;;;;;19.20;7.15;;;;;;;1.50;74.51;92854.81;5092011;28;20440;-46
2021/01/12 09:43:29;;;;;;;16.90;7.80;;;;;;;1.53;75.43;92848.38;5091840;28;20042;-43
2021/01/12 09:45:56;;;;;;;9.35;4.03;;;;;;;1.45;75.17;92831.09;5091720;28;20108;-42
2021/01/12 09:48:22;;;;;;;4.88;2.80;;;;;;;1.41;76.17;92827.91;5091756;28;20055;-44
2021/01/12 09:50:48;;;;;;;12.68;5.50;;;;;;;1.36;76.18;92844.28;5091675;28;20484;-44
2021/01/12 09:53:14;;;;;;;6.40;3.75;;;;;;;1.28;76.63;92825.03;5091633;28;20039;-48
2021/01/12 09:55:39;;;;;;;3.53;2.47;;;;;;;1.54;75.90;92795.44;5091592;28;20028;-46
2021/01/12 09:58:05;;;;;;;5.40;3.30;;;;;;;1.67;76.93;92805.00;5091654;28;20055;-44
2021/01/12 10:00:30;;;;;;;5.38;1.85;;;;;;;1.67;76.85;92807.72;5091479;28;20458;-45
2021/01/12 10:02:56;;;;;;;8.52;3.38;;;;;;;1.74;75.99;92769.03;5091279;28;20420;-46
2021/01/12 10:05:21;;;;;;;20.40;8.60;;;;;;;1.75;76.28;92776.72;5091413;28;20035;-46
2021/01/12 10:07:46;;;;;;;10.15;6.05;;;;;;;1.59;76.12;92796.63;5091361;28;20077;-48
2021/01/12 10:10:12;;;;;;;5.80;2.45;;;;;;;1.50;75.47;92724.25;5091390;28;20063;-43
2021/01/12 10:12:38;;;;;;;10.55;3.90;;;;;;;1.66;75.86;92762.69;5091208;28;20028;-45
2021/01/12 10:15:04;;;;;;;8.75;5.18;;;;;;;1.80;76.53;92783.38;5091283;28;20157;-48
2021/01/12 10:17:30;;;;;;;8.55;6.03;;;;;;;1.94;76.02;92758.47;5091157;28;20020;-45
2021/01/12 10:19:55;;;;;;;12.25;5.40;;;;;;;1.83;74.60;92747.69;5091189;28;20408;-49
2021/01/12 10:22:21;;;;;;;10.15;5.38;;;;;;;1.92;74.82;92754.78;5090656;28;20027;-45
2021/01/12 10:24:46;;;;;;;6.82;4.88;;;;;;;1.79;74.76;92760.84;5091118;28;20039;-43
2021/01/12 10:27:12;;;;;;;4.82;3.70;;;;;;;1.81;74.79;92763.06;5091117;28;20031;-43
2021/01/12 10:29:38;;;;;;;3.05;2.55;;;;;;;1.75;75.60;92765.09;5091076;28;20027;-42
2021/01/12 10:32:04;;;;;;;8.02;5.75;;;;;;;1.76;75.19;92742.06;5090960;28;20024;-46
2021/01/12 10:34:29;;;;;;;7.18;4.53;;;;;;;1.81;75.22;92735.84;5091061;28;20397;-42
2021/01/12 10:36:55;;;;;;;8.23;4.70;;;;;;;1.80;75.88;92737.09;5090991;28;20035;-46
2021/01/12 10:39:20;;;;;;;6.75;3.22;;;;;;;1.84;75.40;92719.22;5091037;28;20024;-42
2021/01/12 10:41:46;;;;;;;9.65;6.05;;;;;;;1.78;74.88;92721.25;5090831;28;20499;-44
2021/01/12 10:44:12;;;;;;;11.73;7.03;;;;;;;1.78;74.97;92709.63;5090954;28;20024;-45
2021/01/12 10:46:37;;;;;;;9.65;5.93;;;;;;;1.69;75.23;92715.44;5091021;28;20565;-46
2021/01/12 10:49:03;;;;;;;5.18;3.17;;;;;;;1.61;75.22;92709.06;5107134;28;20027;-44
2021/01/12 10:51:29;;;;;;;4.80;3.20;;;;;;;1.47;75.65;92710.94;5111061;28;20472;-47
2021/01/12 10:53:54;;;;;;;5.88;3.20;;;;;;;1.52;75.63;92716.31;5110998;28;20027;-44
2021/01/12 10:56:20;;;;;;;4.18;2.83;;;;;;;1.48;75.90;92728.72;5111186;28;20023;-45
2021/01/12 10:58:45;;;;;;;3.38;2.38;;;;;;;1.50;75.46;92728.94;5111267;28;20015;-43
2021/01/12 11:01:15;;;;;;;3.13;2.33;;;;;;;1.60;75.46;92723.94;5110671;28;20044;-44
2021/01/12 11:03:41;;;;;;;5.88;3.22;;;;;;;1.54;75.45;92730.16;5111023;28;20110;-44
2021/01/12 11:06:09;;;;;;;3.53;2.80;;;;;;;1.69;75.26;92726.31;5111021;28;20098;-46
2021/01/12 11:08:34;;;;;;;3.17;2.77;;;;;;;1.72;75.67;92733.44;5110957;28;20027;-45
2021/01/12 11:11:01;;;;;;;5.63;2.78;;;;;;;1.70;75.31;92711.44;5110882;28;20769;-45
2021/01/12 11:13:27;;;;;;;6.10;3.80;;;;;;;1.76;75.08;92703.97;5110783;28;20446;-46
2021/01/12 11:15:56;;;;;;;5.55;3.63;;;;;;;1.74;74.80;92699.03;5110822;28;20038;-46
2021/01/12 11:18:22;;;;;;;13.45;6.88;;;;;;;1.73;75.25;92697.59;5110851;28;20035;-43
2021/01/12 11:20:47;;;;;;;11.68;6.82;;;;;;;1.72;75.50;92695.34;5110720;28;20080;-46
2021/01/12 11:23:13;;;;;;;7.63;5.15;;;;;;;1.71;75.26;92700.06;5110923;28;20044;-45
2021/01/12 11:25:38;;;;;;;10.65;6.30;;;;;;;1.72;75.80;92690.66;5110643;28;20035;-44
2021/01/12 11:28:04;;;;;;;7.35;4.70;;;;;;;1.79;75.27;92684.66;5110825;28;20027;-47
2021/01/12 11:30:30;;;;;;;7.35;3.97;;;;;;;1.78;75.29;92683.16;5110729;28;20024;-42
2021/01/12 11:32:57;;;;;;;9.55;4.65;;;;;;;1.90;74.54;92681.06;5110676;28;20080;-47
2021/01/12 11:35:23;;;;;;;7.63;3.80;;;;;;;1.80;74.41;92660.91;5114452;28;20038;-45
2021/01/12 11:37:49;;;;;;;5.03;3.03;;;;;;;2.03;74.32;92653.94;5108138;28;20107;-45
2021/01/12 11:40:15;;;;;;;7.40;3.97;;;;;;;2.00;74.02;92641.34;5094243;28;20526;-43